sensor_id;sensor_type;location;lat;lon;timestamp;P1;durP1;ratioP1;P2;durP2;ratioP2
22628;SDS011;11481;53.694;9.910;2023-04-24T00:01:24;6.53;;;3.85;;
22628;SDS011;11481;53.694;9.910;2023-04-24T00:03:51;6.47;;;4.35;;
22628;SDS011;11481;53.694;9.910;2023-04-24T00:06:18;7.13;;;3.83;;
22628;SDS011;11481;53.694;9.910;2023-04-24T00:08:44;10.80;;;4.63;;
22628;SDS011;11481;53.694;9.910;2023-04-24T00:11:11;8.50;;;4.40;;
22628;SDS011;11481;53.694;9.910;2023-04-24T00:13:38;8.05;;;4.93;;
22628;SDS011;11481;53.694;9.910;2023-04-24T00:16:05;8.60;;;4.57;;
22628;SDS011;11481;53.694;9.910;2023-04-24T00:18:32;7.80;;;4.25;;
22628;SDS011;11481;53.694;9.910;2023-04-24T00:20:59;8.43;;;4.85;;
22628;SDS011;11481;53.694;9.910;2023-04-24T00:23:26;6.88;;;4.20;;
22628;SDS011;11481;53.694;9.910;2023-04-24T00:25:53;8.45;;;4.50;;
22628;SDS011;11481;53.694;9.910;2023-04-24T00:28:20;7.40;;;4.80;;
22628;SDS011;11481;53.694;9.910;2023-04-24T00:30:46;8.60;;;4.63;;
22628;SDS011;11481;53.694;9.910;2023-04-24T00:33:13;6.60;;;3.97;;
22628;SDS011;11481;53.694;9.910;2023-04-24T00:35:40;10.07;;;4.47;;
22628;SDS011;11481;53.694;9.910;2023-04-24T00:38:07;7.35;;;4.15;;
22628;SDS011;11481;53.694;9.910;2023-04-24T00:40:34;6.53;;;3.80;;
22628;SDS011;11481;53.694;9.910;2023-04-24T00:43:01;8.45;;;4.65;;
22628;SDS011;11481;53.694;9.910;2023-04-24T00:45:28;9.15;;;4.38;;
22628;SDS011;11481;53.694;9.910;2023-04-24T00:47:57;8.48;;;4.55;;
22628;SDS011;11481;53.694;9.910;2023-04-24T00:50:24;6.45;;;4.28;;
22628;SDS011;11481;53.694;9.910;2023-04-24T00:52:52;8.55;;;4.80;;
22628;SDS011;11481;53.694;9.910;2023-04-24T00:55:19;8.45;;;4.82;;
22628;SDS011;11481;53.694;9.910;2023-04-24T00:57:46;6.70;;;4.20;;
22628;SDS011;11481;53.694;9.910;2023-04-24T01:00:15;7.80;;;4.38;;
22628;SDS011;11481;53.694;9.910;2023-04-24T01:02:43;7.90;;;4.35;;
22628;SDS011;11481;53.694;9.910;2023-04-24T01:05:12;7.60;;;4.32;;
22628;SDS011;11481;53.694;9.910;2023-04-24T01:07:40;6.80;;;4.10;;
22628;SDS011;11481;53.694;9.910;2023-04-24T01:10:10;7.88;;;4.47;;
22628;SDS011;11481;53.694;9.910;2023-04-24T01:12:38;8.27;;;4.32;;
22628;SDS011;11481;53.694;9.910;2023-04-24T01:15:06;7.18;;;4.13;;
22628;SDS011;11481;53.694;9.910;2023-04-24T01:17:33;7.90;;;4.43;;
22628;SDS011;11481;53.694;9.910;2023-04-24T01:20:00;6.32;;;3.83;;
22628;SDS011;11481;53.694;9.910;2023-04-24T01:22:27;8.45;;;4.30;;
22628;SDS011;11481;53.694;9.910;2023-04-24T01:24:53;9.23;;;4.15;;
22628;SDS011;11481;53.694;9.910;2023-04-24T01:27:20;6.60;;;4.15;;
22628;SDS011;11481;53.694;9.910;2023-04-24T01:29:47;9.30;;;4.90;;
22628;SDS011;11481;53.694;9.910;2023-04-24T01:32:15;7.28;;;4.25;;
22628;SDS011;11481;53.694;9.910;2023-04-24T01:34:43;8.40;;;4.72;;
22628;SDS011;11481;53.694;9.910;2023-04-24T01:37:10;6.68;;;3.72;;
22628;SDS011;11481;53.694;9.910;2023-04-24T01:39:37;7.30;;;3.80;;
22628;SDS011;11481;53.694;9.910;2023-04-24T01:42:04;6.00;;;3.88;;
22628;SDS011;11481;53.694;9.910;2023-04-24T01:44:32;7.60;;;3.97;;
22628;SDS011;11481;53.694;9.910;2023-04-24T01:47:00;5.85;;;3.63;;
22628;SDS011;11481;53.694;9.910;2023-04-24T01:49:27;7.63;;;3.85;;
22628;SDS011;11481;53.694;9.910;2023-04-24T01:51:54;7.32;;;4.03;;
22628;SDS011;11481;53.694;9.910;2023-04-24T01:54:20;6.53;;;3.70;;
22628;SDS011;11481;53.694;9.910;2023-04-24T01:56:47;8.07;;;3.55;;
22628;SDS011;11481;53.694;9.910;2023-04-24T01:59:14;5.72;;;3.20;;
22628;SDS011;11481;53.694;9.910;2023-04-24T02:01:43;6.70;;;3.50;;
22628;SDS011;11481;53.694;9.910;2023-04-24T02:04:09;5.05;;;3.03;;
22628;SDS011;11481;53.694;9.910;2023-04-24T02:06:36;6.70;;;3.60;;
22628;SDS011;11481;53.694;9.910;2023-04-24T02:09:03;6.78;;;2.97;;
22628;SDS011;11481;53.694;9.910;2023-04-24T02:11:30;5.45;;;2.85;;
22628;SDS011;11481;53.694;9.910;2023-04-24T02:13:57;5.13;;;2.63;;
22628;SDS011;11481;53.694;9.910;2023-04-24T02:16:24;4.70;;;2.60;;
22628;SDS011;11481;53.694;9.910;2023-04-24T02:18:51;4.90;;;2.28;;
22628;SDS011;11481;53.694;9.910;2023-04-24T02:21:17;5.70;;;2.45;;
22628;SDS011;11481;53.694;9.910;2023-04-24T02:23:44;4.20;;;1.92;;
22628;SDS011;11481;53.694;9.910;2023-04-24T02:26:11;3.25;;;1.95;;
22628;SDS011;11481;53.694;9.910;2023-04-24T02:28:38;3.92;;;2.17;;
22628;SDS011;11481;53.694;9.910;2023-04-24T02:31:04;3.63;;;1.77;;
22628;SDS011;11481;53.694;9.910;2023-04-24T02:33:32;3.50;;;1.95;;
22628;SDS011;11481;53.694;9.910;2023-04-24T02:35:59;3.40;;;1.80;;
22628;SDS011;11481;53.694;9.910;2023-04-24T02:38:26;3.72;;;2.00;;
22628;SDS011;11481;53.694;9.910;2023-04-24T02:40:53;2.50;;;1.45;;
22628;SDS011;11481;53.694;9.910;2023-04-24T02:43:20;3.42;;;1.90;;
22628;SDS011;11481;53.694;9.910;2023-04-24T02:45:47;2.58;;;1.55;;
22628;SDS011;11481;53.694;9.910;2023-04-24T02:48:15;3.10;;;1.70;;
22628;SDS011;11481;53.694;9.910;2023-04-24T02:50:41;2.90;;;1.75;;
22628;SDS011;11481;53.694;9.910;2023-04-24T02:53:08;3.00;;;1.58;;
22628;SDS011;11481;53.694;9.910;2023-04-24T02:55:35;3.28;;;1.70;;
22628;SDS011;11481;53.694;9.910;2023-04-24T02:58:02;2.20;;;1.30;;
22628;SDS011;11481;53.694;9.910;2023-04-24T03:00:28;2.20;;;1.35;;
22628;SDS011;11481;53.694;9.910;2023-04-24T03:02:56;3.45;;;1.98;;
22628;SDS011;11481;53.694;9.910;2023-04-24T03:05:23;2.40;;;1.40;;
22628;SDS011;11481;53.694;9.910;2023-04-24T03:07:49;2.85;;;1.50;;
22628;SDS011;11481;53.694;9.910;2023-04-24T03:10:18;3.00;;;1.33;;
22628;SDS011;11481;53.694;9.910;2023-04-24T03:12:45;2.80;;;1.58;;
22628;SDS011;11481;53.694;9.910;2023-04-24T03:15:12;3.65;;;1.77;;
22628;SDS011;11481;53.694;9.910;2023-04-24T03:17:39;3.60;;;1.67;;
22628;SDS011;11481;53.694;9.910;2023-04-24T03:20:06;4.30;;;1.80;;
22628;SDS011;11481;53.694;9.910;2023-04-24T03:22:34;3.50;;;1.60;;
22628;SDS011;11481;53.694;9.910;2023-04-24T03:25:01;2.90;;;1.50;;
22628;SDS011;11481;53.694;9.910;2023-04-24T03:27:28;2.47;;;1.25;;
22628;SDS011;11481;53.694;9.910;2023-04-24T03:29:54;3.50;;;1.65;;
22628;SDS011;11481;53.694;9.910;2023-04-24T03:32:22;3.78;;;1.80;;
22628;SDS011;11481;53.694;9.910;2023-04-24T03:34:49;3.15;;;1.65;;
22628;SDS011;11481;53.694;9.910;2023-04-24T03:37:16;7.57;;;2.22;;
22628;SDS011;11481;53.694;9.910;2023-04-24T03:39:43;5.15;;;1.52;;
22628;SDS011;11481;53.694;9.910;2023-04-24T03:42:10;2.80;;;1.50;;
22628;SDS011;11481;53.694;9.910;2023-04-24T03:44:37;3.53;;;1.77;;
22628;SDS011;11481;53.694;9.910;2023-04-24T03:47:04;3.40;;;1.67;;
22628;SDS011;11481;53.694;9.910;2023-04-24T03:49:30;3.92;;;1.77;;
22628;SDS011;11481;53.694;9.910;2023-04-24T03:51:57;2.65;;;1.52;;
22628;SDS011;11481;53.694;9.910;2023-04-24T03:54:24;3.00;;;1.17;;
22628;SDS011;11481;53.694;9.910;2023-04-24T03:56:52;5.97;;;2.10;;
22628;SDS011;11481;53.694;9.910;2023-04-24T03:59:18;2.83;;;1.45;;
22628;SDS011;11481;53.694;9.910;2023-04-24T04:01:45;3.33;;;1.83;;
22628;SDS011;11481;53.694;9.910;2023-04-24T04:04:12;3.10;;;1.60;;
22628;SDS011;11481;53.694;9.910;2023-04-24T04:06:39;4.10;;;2.05;;
22628;SDS011;11481;53.694;9.910;2023-04-24T04:09:06;2.70;;;1.50;;
22628;SDS011;11481;53.694;9.910;2023-04-24T04:11:33;2.65;;;1.30;;
22628;SDS011;11481;53.694;9.910;2023-04-24T04:14:01;3.75;;;1.50;;
22628;SDS011;11481;53.694;9.910;2023-04-24T04:16:29;3.55;;;1.98;;
22628;SDS011;11481;53.694;9.910;2023-04-24T04:18:56;2.58;;;1.58;;
22628;SDS011;11481;53.694;9.910;2023-04-24T04:21:23;3.42;;;1.73;;
22628;SDS011;11481;53.694;9.910;2023-04-24T04:23:49;3.35;;;1.65;;
22628;SDS011;11481;53.694;9.910;2023-04-24T04:26:16;3.67;;;1.70;;
22628;SDS011;11481;53.694;9.910;2023-04-24T04:28:45;4.65;;;1.63;;
22628;SDS011;11481;53.694;9.910;2023-04-24T04:31:11;3.65;;;1.65;;
22628;SDS011;11481;53.694;9.910;2023-04-24T04:33:39;3.50;;;1.65;;
22628;SDS011;11481;53.694;9.910;2023-04-24T04:36:06;2.83;;;1.60;;
22628;SDS011;11481;53.694;9.910;2023-04-24T04:38:33;3.25;;;1.50;;
22628;SDS011;11481;53.694;9.910;2023-04-24T04:41:01;2.67;;;1.35;;
22628;SDS011;11481;53.694;9.910;2023-04-24T04:43:30;2.20;;;1.38;;
22628;SDS011;11481;53.694;9.910;2023-04-24T04:45:58;2.72;;;1.58;;
22628;SDS011;11481;53.694;9.910;2023-04-24T04:48:27;2.10;;;1.33;;
22628;SDS011;11481;53.694;9.910;2023-04-24T04:50:54;2.78;;;1.30;;
22628;SDS011;11481;53.694;9.910;2023-04-24T04:53:21;2.85;;;1.35;;
22628;SDS011;11481;53.694;9.910;2023-04-24T04:55:50;2.47;;;1.42;;
22628;SDS011;11481;53.694;9.910;2023-04-24T04:58:21;1.98;;;1.20;;
22628;SDS011;11481;53.694;9.910;2023-04-24T05:00:50;2.47;;;1.15;;
22628;SDS011;11481;53.694;9.910;2023-04-24T05:03:18;2.60;;;1.50;;
22628;SDS011;11481;53.694;9.910;2023-04-24T05:05:46;2.33;;;1.17;;
22628;SDS011;11481;53.694;9.910;2023-04-24T05:08:13;2.20;;;1.27;;
22628;SDS011;11481;53.694;9.910;2023-04-24T05:10:43;2.60;;;1.05;;
22628;SDS011;11481;53.694;9.910;2023-04-24T05:13:09;2.15;;;1.15;;
22628;SDS011;11481;53.694;9.910;2023-04-24T05:15:39;2.75;;;1.20;;
22628;SDS011;11481;53.694;9.910;2023-04-24T05:18:06;1.70;;;1.08;;
22628;SDS011;11481;53.694;9.910;2023-04-24T05:20:32;4.78;;;1.27;;
22628;SDS011;11481;53.694;9.910;2023-04-24T05:22:59;1.65;;;0.98;;
22628;SDS011;11481;53.694;9.910;2023-04-24T05:25:26;1.95;;;1.20;;
22628;SDS011;11481;53.694;9.910;2023-04-24T05:27:52;1.95;;;1.10;;
22628;SDS011;11481;53.694;9.910;2023-04-24T05:30:22;1.92;;;1.15;;
22628;SDS011;11481;53.694;9.910;2023-04-24T05:32:49;1.70;;;1.08;;
22628;SDS011;11481;53.694;9.910;2023-04-24T05:35:15;5.80;;;1.65;;
22628;SDS011;11481;53.694;9.910;2023-04-24T05:37:42;2.13;;;1.10;;
22628;SDS011;11481;53.694;9.910;2023-04-24T05:40:09;3.00;;;1.00;;
22628;SDS011;11481;53.694;9.910;2023-04-24T05:42:37;2.03;;;1.25;;
22628;SDS011;11481;53.694;9.910;2023-04-24T05:45:04;3.28;;;1.30;;
22628;SDS011;11481;53.694;9.910;2023-04-24T05:47:31;3.05;;;1.20;;
22628;SDS011;11481;53.694;9.910;2023-04-24T05:49:58;1.92;;;1.15;;
22628;SDS011;11481;53.694;9.910;2023-04-24T05:52:25;2.42;;;1.00;;
22628;SDS011;11481;53.694;9.910;2023-04-24T05:54:51;2.40;;;1.35;;
22628;SDS011;11481;53.694;9.910;2023-04-24T05:57:19;2.05;;;1.00;;
22628;SDS011;11481;53.694;9.910;2023-04-24T05:59:46;2.33;;;1.30;;
22628;SDS011;11481;53.694;9.910;2023-04-24T06:02:14;2.63;;;0.88;;
22628;SDS011;11481;53.694;9.910;2023-04-24T06:04:41;1.90;;;1.00;;
22628;SDS011;11481;53.694;9.910;2023-04-24T06:07:10;1.90;;;1.20;;
22628;SDS011;11481;53.694;9.910;2023-04-24T06:09:37;2.92;;;1.00;;
22628;SDS011;11481;53.694;9.910;2023-04-24T06:12:03;2.10;;;1.20;;
22628;SDS011;11481;53.694;9.910;2023-04-24T06:14:30;2.13;;;1.25;;
22628;SDS011;11481;53.694;9.910;2023-04-24T06:16:57;3.55;;;1.25;;
22628;SDS011;11481;53.694;9.910;2023-04-24T06:19:24;4.10;;;1.30;;
22628;SDS011;11481;53.694;9.910;2023-04-24T06:21:50;1.90;;;1.17;;
22628;SDS011;11481;53.694;9.910;2023-04-24T06:24:18;1.98;;;1.05;;
22628;SDS011;11481;53.694;9.910;2023-04-24T06:26:48;2.90;;;1.40;;
22628;SDS011;11481;53.694;9.910;2023-04-24T06:29:17;2.22;;;1.30;;
22628;SDS011;11481;53.694;9.910;2023-04-24T06:31:45;1.92;;;1.20;;
22628;SDS011;11481;53.694;9.910;2023-04-24T06:34:14;2.63;;;1.27;;
22628;SDS011;11481;53.694;9.910;2023-04-24T06:36:46;2.25;;;1.27;;
22628;SDS011;11481;53.694;9.910;2023-04-24T06:39:15;2.28;;;0.90;;
22628;SDS011;11481;53.694;9.910;2023-04-24T06:41:42;2.83;;;1.23;;
22628;SDS011;11481;53.694;9.910;2023-04-24T06:44:15;3.35;;;1.25;;
22628;SDS011;11481;53.694;9.910;2023-04-24T06:46:42;2.72;;;1.08;;
22628;SDS011;11481;53.694;9.910;2023-04-24T06:49:09;1.73;;;0.90;;
22628;SDS011;11481;53.694;9.910;2023-04-24T06:51:36;2.60;;;1.20;;
22628;SDS011;11481;53.694;9.910;2023-04-24T06:54:03;1.70;;;0.98;;
22628;SDS011;11481;53.694;9.910;2023-04-24T06:56:30;2.65;;;1.10;;
22628;SDS011;11481;53.694;9.910;2023-04-24T06:58:57;2.72;;;1.23;;
22628;SDS011;11481;53.694;9.910;2023-04-24T07:01:24;4.40;;;1.10;;
22628;SDS011;11481;53.694;9.910;2023-04-24T07:03:50;2.38;;;1.52;;
22628;SDS011;11481;53.694;9.910;2023-04-24T07:06:18;2.80;;;1.27;;
22628;SDS011;11481;53.694;9.910;2023-04-24T07:08:47;2.65;;;1.10;;
22628;SDS011;11481;53.694;9.910;2023-04-24T07:11:16;3.28;;;1.40;;
22628;SDS011;11481;53.694;9.910;2023-04-24T07:13:42;2.28;;;1.30;;
22628;SDS011;11481;53.694;9.910;2023-04-24T07:16:10;2.20;;;1.40;;
22628;SDS011;11481;53.694;9.910;2023-04-24T07:18:37;3.92;;;1.52;;
22628;SDS011;11481;53.694;9.910;2023-04-24T07:21:07;2.20;;;1.33;;
22628;SDS011;11481;53.694;9.910;2023-04-24T07:23:34;3.67;;;1.95;;
22628;SDS011;11481;53.694;9.910;2023-04-24T07:26:00;4.88;;;1.75;;
22628;SDS011;11481;53.694;9.910;2023-04-24T07:28:27;8.35;;;2.10;;
22628;SDS011;11481;53.694;9.910;2023-04-24T07:30:57;3.75;;;1.60;;
22628;SDS011;11481;53.694;9.910;2023-04-24T07:33:26;4.00;;;2.03;;
22628;SDS011;11481;53.694;9.910;2023-04-24T07:35:53;7.85;;;2.60;;
22628;SDS011;11481;53.694;9.910;2023-04-24T07:38:20;3.80;;;2.20;;
22628;SDS011;11481;53.694;9.910;2023-04-24T07:40:49;4.90;;;2.58;;
22628;SDS011;11481;53.694;9.910;2023-04-24T07:43:16;4.20;;;2.60;;
22628;SDS011;11481;53.694;9.910;2023-04-24T07:45:42;5.93;;;2.72;;
22628;SDS011;11481;53.694;9.910;2023-04-24T07:48:09;5.65;;;2.80;;
22628;SDS011;11481;53.694;9.910;2023-04-24T07:50:36;4.43;;;2.55;;
22628;SDS011;11481;53.694;9.910;2023-04-24T07:53:03;5.20;;;3.22;;
22628;SDS011;11481;53.694;9.910;2023-04-24T07:55:30;5.68;;;3.03;;
22628;SDS011;11481;53.694;9.910;2023-04-24T07:57:57;5.30;;;2.88;;
22628;SDS011;11481;53.694;9.910;2023-04-24T08:00:26;4.72;;;2.95;;
22628;SDS011;11481;53.694;9.910;2023-04-24T08:02:53;5.70;;;3.20;;
22628;SDS011;11481;53.694;9.910;2023-04-24T08:05:20;6.55;;;3.13;;
22628;SDS011;11481;53.694;9.910;2023-04-24T08:07:49;8.18;;;3.58;;
22628;SDS011;11481;53.694;9.910;2023-04-24T08:10:18;6.53;;;2.85;;
22628;SDS011;11481;53.694;9.910;2023-04-24T08:12:44;4.88;;;2.90;;
22628;SDS011;11481;53.694;9.910;2023-04-24T08:15:16;6.75;;;3.35;;
22628;SDS011;11481;53.694;9.910;2023-04-24T08:17:45;4.68;;;3.10;;
22628;SDS011;11481;53.694;9.910;2023-04-24T08:20:17;6.80;;;3.58;;
22628;SDS011;11481;53.694;9.910;2023-04-24T08:22:48;7.60;;;3.10;;
22628;SDS011;11481;53.694;9.910;2023-04-24T08:25:17;7.82;;;3.45;;
22628;SDS011;11481;53.694;9.910;2023-04-24T08:27:45;7.38;;;3.90;;
22628;SDS011;11481;53.694;9.910;2023-04-24T08:30:12;7.05;;;2.85;;
22628;SDS011;11481;53.694;9.910;2023-04-24T08:32:40;5.35;;;3.10;;
22628;SDS011;11481;53.694;9.910;2023-04-24T08:35:08;4.90;;;2.75;;
22628;SDS011;11481;53.694;9.910;2023-04-24T08:37:38;3.95;;;2.10;;
22628;SDS011;11481;53.694;9.910;2023-04-24T08:40:13;5.32;;;2.70;;
22628;SDS011;11481;53.694;9.910;2023-04-24T08:42:47;6.78;;;3.25;;
22628;SDS011;11481;53.694;9.910;2023-04-24T08:45:19;3.78;;;2.38;;
22628;SDS011;11481;53.694;9.910;2023-04-24T08:47:46;4.70;;;2.67;;
22628;SDS011;11481;53.694;9.910;2023-04-24T08:50:17;6.22;;;3.08;;
22628;SDS011;11481;53.694;9.910;2023-04-24T08:52:43;5.47;;;2.88;;
22628;SDS011;11481;53.694;9.910;2023-04-24T08:55:23;5.50;;;2.70;;
22628;SDS011;11481;53.694;9.910;2023-04-24T08:57:52;5.80;;;3.20;;
22628;SDS011;11481;53.694;9.910;2023-04-24T09:00:22;6.68;;;3.60;;
22628;SDS011;11481;53.694;9.910;2023-04-24T09:02:49;5.70;;;3.45;;
22628;SDS011;11481;53.694;9.910;2023-04-24T09:05:22;6.10;;;3.55;;
22628;SDS011;11481;53.694;9.910;2023-04-24T09:07:54;6.43;;;3.55;;
22628;SDS011;11481;53.694;9.910;2023-04-24T09:10:25;6.60;;;3.63;;
22628;SDS011;11481;53.694;9.910;2023-04-24T09:12:52;6.57;;;4.03;;
22628;SDS011;11481;53.694;9.910;2023-04-24T09:15:39;6.22;;;3.45;;
22628;SDS011;11481;53.694;9.910;2023-04-24T09:18:10;6.63;;;3.75;;
22628;SDS011;11481;53.694;9.910;2023-04-24T09:23:25;8.38;;;4.13;;
22628;SDS011;11481;53.694;9.910;2023-04-24T09:25:56;11.20;;;4.22;;
22628;SDS011;11481;53.694;9.910;2023-04-24T09:28:31;7.40;;;3.97;;
22628;SDS011;11481;53.694;9.910;2023-04-24T09:31:11;7.93;;;4.18;;
22628;SDS011;11481;53.694;9.910;2023-04-24T09:33:53;8.18;;;4.72;;
22628;SDS011;11481;53.694;9.910;2023-04-24T09:36:31;8.52;;;5.00;;
22628;SDS011;11481;53.694;9.910;2023-04-24T09:39:05;8.52;;;4.53;;
22628;SDS011;11481;53.694;9.910;2023-04-24T09:41:46;9.50;;;4.78;;
22628;SDS011;11481;53.694;9.910;2023-04-24T09:44:22;9.48;;;4.97;;
22628;SDS011;11481;53.694;9.910;2023-04-24T09:46:53;8.48;;;4.68;;
22628;SDS011;11481;53.694;9.910;2023-04-24T09:49:30;7.63;;;4.30;;
22628;SDS011;11481;53.694;9.910;2023-04-24T09:52:06;6.03;;;3.78;;
22628;SDS011;11481;53.694;9.910;2023-04-24T09:54:34;9.43;;;4.95;;
22628;SDS011;11481;53.694;9.910;2023-04-24T09:57:02;7.70;;;4.20;;
22628;SDS011;11481;53.694;9.910;2023-04-24T09:59:30;8.45;;;4.20;;
22628;SDS011;11481;53.694;9.910;2023-04-24T10:01:57;11.25;;;4.63;;
22628;SDS011;11481;53.694;9.910;2023-04-24T10:04:26;8.68;;;4.55;;
22628;SDS011;11481;53.694;9.910;2023-04-24T10:06:55;8.70;;;4.50;;
22628;SDS011;11481;53.694;9.910;2023-04-24T10:09:26;8.63;;;4.40;;
22628;SDS011;11481;53.694;9.910;2023-04-24T10:11:53;8.32;;;5.10;;
22628;SDS011;11481;53.694;9.910;2023-04-24T10:14:22;8.32;;;4.63;;
22628;SDS011;11481;53.694;9.910;2023-04-24T10:16:54;10.05;;;5.70;;
22628;SDS011;11481;53.694;9.910;2023-04-24T10:19:22;8.77;;;5.18;;
22628;SDS011;11481;53.694;9.910;2023-04-24T10:21:52;10.73;;;5.65;;
22628;SDS011;11481;53.694;9.910;2023-04-24T10:24:22;10.82;;;5.53;;
22628;SDS011;11481;53.694;9.910;2023-04-24T10:26:49;9.60;;;5.10;;
22628;SDS011;11481;53.694;9.910;2023-04-24T10:29:18;11.07;;;5.68;;
22628;SDS011;11481;53.694;9.910;2023-04-24T10:31:45;9.63;;;5.55;;
22628;SDS011;11481;53.694;9.910;2023-04-24T10:34:15;10.05;;;5.85;;
22628;SDS011;11481;53.694;9.910;2023-04-24T10:36:48;10.82;;;6.28;;
22628;SDS011;11481;53.694;9.910;2023-04-24T10:39:23;9.38;;;5.13;;
22628;SDS011;11481;53.694;9.910;2023-04-24T10:41:53;11.25;;;6.40;;
22628;SDS011;11481;53.694;9.910;2023-04-24T10:44:22;10.55;;;5.68;;
22628;SDS011;11481;53.694;9.910;2023-04-24T10:46:52;11.30;;;5.65;;
22628;SDS011;11481;53.694;9.910;2023-04-24T10:49:29;11.20;;;6.78;;
22628;SDS011;11481;53.694;9.910;2023-04-24T10:52:01;13.57;;;6.35;;
22628;SDS011;11481;53.694;9.910;2023-04-24T10:54:36;14.75;;;6.68;;
22628;SDS011;11481;53.694;9.910;2023-04-24T11:00:09;13.55;;;7.10;;
22628;SDS011;11481;53.694;9.910;2023-04-24T11:02:41;13.05;;;6.20;;
22628;SDS011;11481;53.694;9.910;2023-04-24T11:05:16;13.90;;;6.40;;
22628;SDS011;11481;53.694;9.910;2023-04-24T11:10:44;12.95;;;5.95;;
22628;SDS011;11481;53.694;9.910;2023-04-24T11:13:14;12.30;;;6.05;;
22628;SDS011;11481;53.694;9.910;2023-04-24T11:15:42;13.85;;;6.95;;
22628;SDS011;11481;53.694;9.910;2023-04-24T11:18:13;14.57;;;6.13;;
22628;SDS011;11481;53.694;9.910;2023-04-24T11:20:43;13.23;;;7.05;;
22628;SDS011;11481;53.694;9.910;2023-04-24T11:23:12;13.38;;;6.20;;
22628;SDS011;11481;53.694;9.910;2023-04-24T11:25:40;11.00;;;5.85;;
22628;SDS011;11481;53.694;9.910;2023-04-24T11:28:07;9.88;;;5.82;;
22628;SDS011;11481;53.694;9.910;2023-04-24T11:30:42;15.50;;;6.47;;
22628;SDS011;11481;53.694;9.910;2023-04-24T11:33:08;12.73;;;6.80;;
22628;SDS011;11481;53.694;9.910;2023-04-24T11:35:38;12.57;;;6.55;;
22628;SDS011;11481;53.694;9.910;2023-04-24T11:38:06;17.63;;;6.32;;
22628;SDS011;11481;53.694;9.910;2023-04-24T11:40:49;14.10;;;6.72;;
22628;SDS011;11481;53.694;9.910;2023-04-24T11:43:16;13.07;;;6.68;;
22628;SDS011;11481;53.694;9.910;2023-04-24T11:45:47;11.88;;;6.45;;
22628;SDS011;11481;53.694;9.910;2023-04-24T11:48:18;15.30;;;6.55;;
22628;SDS011;11481;53.694;9.910;2023-04-24T11:50:48;16.27;;;6.60;;
22628;SDS011;11481;53.694;9.910;2023-04-24T11:53:15;16.08;;;7.22;;
22628;SDS011;11481;53.694;9.910;2023-04-24T11:55:41;13.98;;;7.38;;
22628;SDS011;11481;53.694;9.910;2023-04-24T11:58:08;14.75;;;6.63;;
22628;SDS011;11481;53.694;9.910;2023-04-24T12:00:35;13.32;;;7.43;;
22628;SDS011;11481;53.694;9.910;2023-04-24T12:03:06;14.20;;;7.25;;
22628;SDS011;11481;53.694;9.910;2023-04-24T12:05:38;14.30;;;7.60;;
22628;SDS011;11481;53.694;9.910;2023-04-24T12:08:05;11.57;;;7.13;;
22628;SDS011;11481;53.694;9.910;2023-04-24T12:10:34;14.95;;;7.65;;
22628;SDS011;11481;53.694;9.910;2023-04-24T12:13:01;12.48;;;6.43;;
22628;SDS011;11481;53.694;9.910;2023-04-24T12:15:28;10.45;;;5.53;;
22628;SDS011;11481;53.694;9.910;2023-04-24T12:17:55;9.25;;;5.03;;
22628;SDS011;11481;53.694;9.910;2023-04-24T12:20:32;8.68;;;4.70;;
22628;SDS011;11481;53.694;9.910;2023-04-24T12:23:01;9.90;;;5.70;;
22628;SDS011;11481;53.694;9.910;2023-04-24T12:25:31;10.13;;;5.20;;
22628;SDS011;11481;53.694;9.910;2023-04-24T12:30:32;9.93;;;5.00;;
22628;SDS011;11481;53.694;9.910;2023-04-24T12:32:59;11.25;;;5.30;;
22628;SDS011;11481;53.694;9.910;2023-04-24T12:35:27;9.45;;;4.88;;
22628;SDS011;11481;53.694;9.910;2023-04-24T12:38:07;11.98;;;5.22;;
22628;SDS011;11481;53.694;9.910;2023-04-24T12:40:42;9.57;;;5.43;;
22628;SDS011;11481;53.694;9.910;2023-04-24T12:43:16;10.38;;;5.18;;
22628;SDS011;11481;53.694;9.910;2023-04-24T12:45:47;8.73;;;4.80;;
22628;SDS011;11481;53.694;9.910;2023-04-24T12:48:14;8.38;;;4.70;;
22628;SDS011;11481;53.694;9.910;2023-04-24T12:50:40;9.57;;;4.78;;
22628;SDS011;11481;53.694;9.910;2023-04-24T12:53:11;12.52;;;6.28;;
22628;SDS011;11481;53.694;9.910;2023-04-24T12:55:38;11.23;;;5.45;;
22628;SDS011;11481;53.694;9.910;2023-04-24T12:58:07;9.80;;;5.15;;
22628;SDS011;11481;53.694;9.910;2023-04-24T13:00:34;10.30;;;4.97;;
22628;SDS011;11481;53.694;9.910;2023-04-24T13:03:03;10.38;;;6.13;;
22628;SDS011;11481;53.694;9.910;2023-04-24T13:05:32;9.38;;;5.35;;
22628;SDS011;11481;53.694;9.910;2023-04-24T13:07:59;8.73;;;5.15;;
22628;SDS011;11481;53.694;9.910;2023-04-24T13:10:25;10.05;;;5.97;;
22628;SDS011;11481;53.694;9.910;2023-04-24T13:12:52;11.80;;;4.97;;
22628;SDS011;11481;53.694;9.910;2023-04-24T13:15:19;9.00;;;4.90;;
22628;SDS011;11481;53.694;9.910;2023-04-24T13:17:46;9.68;;;5.47;;
22628;SDS011;11481;53.694;9.910;2023-04-24T13:20:14;9.38;;;5.35;;
22628;SDS011;11481;53.694;9.910;2023-04-24T13:22:41;10.15;;;5.30;;
22628;SDS011;11481;53.694;9.910;2023-04-24T13:25:07;9.90;;;5.10;;
22628;SDS011;11481;53.694;9.910;2023-04-24T13:27:35;9.80;;;5.25;;
22628;SDS011;11481;53.694;9.910;2023-04-24T13:30:02;8.30;;;4.82;;
22628;SDS011;11481;53.694;9.910;2023-04-24T13:32:30;10.90;;;5.18;;
22628;SDS011;11481;53.694;9.910;2023-04-24T13:34:58;10.05;;;5.20;;
22628;SDS011;11481;53.694;9.910;2023-04-24T13:37:25;10.50;;;5.28;;
22628;SDS011;11481;53.694;9.910;2023-04-24T13:39:54;10.40;;;5.10;;
22628;SDS011;11481;53.694;9.910;2023-04-24T13:42:22;11.85;;;5.75;;
22628;SDS011;11481;53.694;9.910;2023-04-24T13:44:49;10.38;;;5.47;;
22628;SDS011;11481;53.694;9.910;2023-04-24T13:47:17;11.00;;;5.90;;
22628;SDS011;11481;53.694;9.910;2023-04-24T13:49:45;9.38;;;5.13;;
22628;SDS011;11481;53.694;9.910;2023-04-24T13:52:12;10.60;;;5.72;;
22628;SDS011;11481;53.694;9.910;2023-04-24T13:54:38;11.30;;;5.97;;
22628;SDS011;11481;53.694;9.910;2023-04-24T13:57:05;10.60;;;6.07;;
22628;SDS011;11481;53.694;9.910;2023-04-24T13:59:32;9.75;;;5.45;;
22628;SDS011;11481;53.694;9.910;2023-04-24T14:01:58;11.00;;;5.82;;
22628;SDS011;11481;53.694;9.910;2023-04-24T14:04:25;11.57;;;5.72;;
22628;SDS011;11481;53.694;9.910;2023-04-24T14:06:54;10.43;;;6.00;;
22628;SDS011;11481;53.694;9.910;2023-04-24T14:09:20;10.95;;;6.18;;
22628;SDS011;11481;53.694;9.910;2023-04-24T14:11:48;10.45;;;5.63;;
22628;SDS011;11481;53.694;9.910;2023-04-24T14:14:17;12.13;;;5.72;;
22628;SDS011;11481;53.694;9.910;2023-04-24T14:16:44;10.77;;;5.72;;
22628;SDS011;11481;53.694;9.910;2023-04-24T14:19:10;11.10;;;6.18;;
22628;SDS011;11481;53.694;9.910;2023-04-24T14:21:38;10.20;;;6.05;;
22628;SDS011;11481;53.694;9.910;2023-04-24T14:24:05;11.15;;;5.65;;
22628;SDS011;11481;53.694;9.910;2023-04-24T14:26:34;11.63;;;6.30;;
22628;SDS011;11481;53.694;9.910;2023-04-24T14:29:00;11.45;;;6.05;;
22628;SDS011;11481;53.694;9.910;2023-04-24T14:31:30;11.13;;;6.13;;
22628;SDS011;11481;53.694;9.910;2023-04-24T14:33:57;9.35;;;5.25;;
22628;SDS011;11481;53.694;9.910;2023-04-24T14:36:23;9.43;;;5.00;;
22628;SDS011;11481;53.694;9.910;2023-04-24T14:38:50;10.25;;;4.93;;
22628;SDS011;11481;53.694;9.910;2023-04-24T14:41:17;8.63;;;3.92;;
22628;SDS011;11481;53.694;9.910;2023-04-24T14:43:45;6.70;;;3.50;;
22628;SDS011;11481;53.694;9.910;2023-04-24T14:46:12;9.70;;;4.13;;
22628;SDS011;11481;53.694;9.910;2023-04-24T14:48:38;8.43;;;4.43;;
22628;SDS011;11481;53.694;9.910;2023-04-24T14:51:05;7.63;;;3.80;;
22628;SDS011;11481;53.694;9.910;2023-04-24T14:53:32;8.07;;;4.22;;
22628;SDS011;11481;53.694;9.910;2023-04-24T14:56:00;7.95;;;3.47;;
22628;SDS011;11481;53.694;9.910;2023-04-24T14:58:26;8.02;;;3.65;;
22628;SDS011;11481;53.694;9.910;2023-04-24T15:00:53;7.32;;;3.50;;
22628;SDS011;11481;53.694;9.910;2023-04-24T15:03:22;7.60;;;3.50;;